TOM4HT GMMN-EGKK
Flight info
| Callsign | TOM4HT |
|---|---|
| Flight time | N/A |
| Altitude | 34000 |
| Route | TOLSI UG5 KORIS L27 VJF N10 HIJ Z230 TLD N858 EDIGO/N0457F360 N858 DGO N867 NENEM DCT PEXOD DCT YURZI UL14 TEPRA UN867 TERPO UP87 UPALO/N0447F340 UP87 REVTU UP88 VASUX |
| Aircraft | B738/M-SDE2E3FGHIRWXY/LB1 |
Departure
| Time | 2026-05-07 17:49 |
|---|---|
| Airport | Mohammed V International Airport (GMMN) |
Arrival
| Time | N/A |
|---|---|
| Airport | London Gatwick Airport (EGKK) |
| Time | Latitude | Longitude | Altitude | Speed | Heading |
|---|---|---|---|---|---|
| 2026-05-07 16:39 | 33.36331 | -7.58015 | 657 ft | 0 kts | 75° |
| 2026-05-07 17:01 | 33.36331 | -7.58016 | 657 ft | 1 kts | 75° |
| 2026-05-07 17:02 | 33.36327 | -7.58033 | 657 ft | 3 kts | 77° |
| 2026-05-07 17:02 | 33.36323 | -7.58057 | 657 ft | 3 kts | 81° |
| 2026-05-07 17:02 | 33.36320 | -7.58081 | 657 ft | 3 kts | 86° |
| 2026-05-07 17:02 | 33.36320 | -7.58105 | 657 ft | 3 kts | 95° |
| 2026-05-07 17:03 | 33.36321 | -7.58117 | 657 ft | 0 kts | 98° |
| 2026-05-07 17:06 | 33.36307 | -7.58098 | 657 ft | 4 kts | 153° |
| 2026-05-07 17:06 | 33.36278 | -7.58107 | 657 ft | 5 kts | 234° |
| 2026-05-07 17:07 | 33.36253 | -7.58202 | 657 ft | 16 kts | 245° |
| 2026-05-07 17:07 | 33.36156 | -7.58233 | 658 ft | 18 kts | 159° |
| 2026-05-07 17:07 | 33.36018 | -7.58173 | 659 ft | 23 kts | 163° |
| 2026-05-07 17:07 | 33.35867 | -7.58122 | 660 ft | 22 kts | 164° |
| 2026-05-07 17:08 | 33.35796 | -7.58099 | 660 ft | 7 kts | 165° |
| 2026-05-07 17:08 | 33.35750 | -7.58084 | 659 ft | 7 kts | 165° |
| 2026-05-07 17:08 | 33.35705 | -7.58070 | 661 ft | 7 kts | 165° |
| 2026-05-07 17:08 | 33.35661 | -7.58056 | 661 ft | 6 kts | 164° |
| 2026-05-07 17:09 | 33.35611 | -7.58039 | 659 ft | 10 kts | 164° |
| 2026-05-07 17:09 | 33.35528 | -7.58010 | 662 ft | 13 kts | 163° |
| 2026-05-07 17:09 | 33.35470 | -7.57990 | 662 ft | 6 kts | 163° |
| 2026-05-07 17:09 | 33.35458 | -7.57986 | 662 ft | 0 kts | 163° |
| 2026-05-07 17:11 | 33.35449 | -7.57982 | 662 ft | 5 kts | 163° |
| 2026-05-07 17:11 | 33.35415 | -7.57971 | 662 ft | 3 kts | 163° |
| 2026-05-07 17:11 | 33.35412 | -7.57970 | 663 ft | 0 kts | 163° |
| 2026-05-07 17:14 | 33.35393 | -7.57963 | 663 ft | 0 kts | 163° |
| 2026-05-07 17:15 | 33.35367 | -7.57954 | 663 ft | 6 kts | 166° |
| 2026-05-07 17:15 | 33.35325 | -7.57946 | 663 ft | 6 kts | 178° |
| 2026-05-07 17:16 | 33.35292 | -7.57955 | 663 ft | 0 kts | 204° |
| 2026-05-07 17:19 | 33.35286 | -7.57959 | 663 ft | 3 kts | 211° |
| 2026-05-07 17:19 | 33.35265 | -7.57986 | 663 ft | 0 kts | 235° |
| 2026-05-07 17:21 | 33.35250 | -7.58019 | 662 ft | 9 kts | 247° |
| 2026-05-07 17:21 | 33.35234 | -7.58079 | 663 ft | 0 kts | 254° |
| 2026-05-07 17:23 | 33.35231 | -7.58094 | 663 ft | 6 kts | 254° |
| 2026-05-07 17:23 | 33.35210 | -7.58180 | 662 ft | 15 kts | 254° |
| 2026-05-07 17:23 | 33.35257 | -7.58277 | 665 ft | 15 kts | 338° |
| 2026-05-07 17:24 | 33.35272 | -7.58283 | 665 ft | 0 kts | 342° |
| 2026-05-07 17:25 | 33.35400 | -7.58328 | 663 ft | 50 kts | 346° |
| 2026-05-07 17:25 | 33.35852 | -7.58480 | 657 ft | 64 kts | 344° |
| 2026-05-07 17:26 | 33.36141 | -7.58557 | 655 ft | 27 kts | 24° |
| 2026-05-07 17:26 | 33.36189 | -7.58447 | 657 ft | 0 kts | 73° |
| 2026-05-07 17:27 | 33.36190 | -7.58446 | 657 ft | 0 kts | 73° |
| 2026-05-07 17:28 | 33.36190 | -7.58445 | 657 ft | 1 kts | 73° |
| 2026-05-07 17:29 | 33.36206 | -7.58381 | 657 ft | 12 kts | 73° |
| 2026-05-07 17:29 | 33.36222 | -7.58283 | 657 ft | 12 kts | 100° |
| 2026-05-07 17:29 | 33.36159 | -7.58228 | 658 ft | 12 kts | 161° |
| 2026-05-07 17:29 | 33.36083 | -7.58199 | 658 ft | 11 kts | 163° |
| 2026-05-07 17:30 | 33.36009 | -7.58172 | 659 ft | 11 kts | 163° |
| 2026-05-07 17:30 | 33.35937 | -7.58147 | 659 ft | 11 kts | 164° |
| 2026-05-07 17:30 | 33.35867 | -7.58124 | 660 ft | 10 kts | 164° |
| 2026-05-07 17:30 | 33.35799 | -7.58101 | 660 ft | 10 kts | 164° |
| 2026-05-07 17:31 | 33.35735 | -7.58080 | 660 ft | 10 kts | 165° |
| 2026-05-07 17:31 | 33.35670 | -7.58058 | 661 ft | 10 kts | 164° |
| 2026-05-07 17:31 | 33.35600 | -7.58056 | 661 ft | 11 kts | 204° |
| 2026-05-07 17:31 | 33.35572 | -7.58095 | 661 ft | 0 kts | 252° |
| 2026-05-07 17:32 | 33.35572 | -7.58096 | 661 ft | 0 kts | 252° |
| 2026-05-07 17:32 | 33.35571 | -7.58097 | 661 ft | 1 kts | 251° |
| 2026-05-07 17:33 | 33.35569 | -7.58106 | 661 ft | 0 kts | 252° |
| 2026-05-07 17:33 | 33.35568 | -7.58111 | 662 ft | 0 kts | 252° |
| 2026-05-07 17:33 | 33.35568 | -7.58112 | 662 ft | 0 kts | 251° |
| 2026-05-07 17:34 | 33.35567 | -7.58113 | 661 ft | 0 kts | 251° |
| 2026-05-07 17:34 | 33.35567 | -7.58114 | 662 ft | 0 kts | 251° |
| 2026-05-07 17:34 | 33.35565 | -7.58120 | 661 ft | 1 kts | 251° |
| 2026-05-07 17:35 | 33.35560 | -7.58137 | 662 ft | 3 kts | 251° |
| 2026-05-07 17:35 | 33.35556 | -7.58166 | 660 ft | 4 kts | 262° |
| 2026-05-07 17:35 | 33.35552 | -7.58186 | 661 ft | 0 kts | 255° |
| 2026-05-07 17:45 | 33.35548 | -7.58204 | 661 ft | 9 kts | 255° |
| 2026-05-07 17:45 | 33.35531 | -7.58337 | 660 ft | 21 kts | 287° |
| 2026-05-07 17:46 | 33.35580 | -7.58388 | 659 ft | 0 kts | 343° |
| 2026-05-07 17:48 | 33.35732 | -7.58441 | 658 ft | 57 kts | 344° |
| 2026-05-07 17:48 | 33.36337 | -7.58646 | 657 ft | 121 kts | 344° |
| 2026-05-07 17:48 | 33.37308 | -7.58958 | 790 ft | 160 kts | 346° |
| 2026-05-07 17:49 | 33.38429 | -7.59312 | 1440 ft | 173 kts | 346° |
| 2026-05-07 17:49 | 33.39547 | -7.59719 | 2345 ft | 163 kts | 345° |
| 2026-05-07 17:49 | 33.40682 | -7.59986 | 3019 ft | 177 kts | 355° |
| 2026-05-07 17:49 | 33.42016 | -7.59932 | 3263 ft | 204 kts | 7° |
| 2026-05-07 17:50 | 33.43458 | -7.59460 | 3547 ft | 225 kts | 21° |
| 2026-05-07 17:50 | 33.44841 | -7.58519 | 3994 ft | 238 kts | 35° |
| 2026-05-07 17:50 | 33.46079 | -7.57110 | 4460 ft | 250 kts | 48° |
| 2026-05-07 17:50 | 33.47192 | -7.55484 | 5152 ft | 254 kts | 51° |
| 2026-05-07 17:51 | 33.48305 | -7.53816 | 5918 ft | 258 kts | 52° |
| 2026-05-07 17:51 | 33.49447 | -7.52122 | 6579 ft | 266 kts | 51° |
| 2026-05-07 17:51 | 33.50632 | -7.50396 | 7173 ft | 273 kts | 51° |
| 2026-05-07 17:51 | 33.51846 | -7.48650 | 7992 ft | 273 kts | 51° |
| 2026-05-07 17:52 | 33.53087 | -7.46878 | 8647 ft | 279 kts | 51° |
| 2026-05-07 17:52 | 33.54339 | -7.45096 | 9291 ft | 286 kts | 51° |
| 2026-05-07 17:52 | 33.55641 | -7.43254 | 9960 ft | 292 kts | 47° |
| 2026-05-07 17:52 | 33.57321 | -7.41877 | 10486 ft | 299 kts | 16° |
| 2026-05-07 17:53 | 33.59422 | -7.41338 | 10707 ft | 319 kts | 7° |
| 2026-05-07 17:53 | 33.61672 | -7.40930 | 10894 ft | 341 kts | 6° |
| 2026-05-07 17:53 | 33.64095 | -7.40513 | 11060 ft | 363 kts | 6° |
| 2026-05-07 17:53 | 33.66674 | -7.40062 | 11259 ft | 382 kts | 6° |
| 2026-05-07 17:54 | 33.69342 | -7.39578 | 11816 ft | 388 kts | 7° |
| 2026-05-07 17:54 | 33.71988 | -7.39084 | 12467 ft | 391 kts | 7° |
| 2026-05-07 17:54 | 33.74690 | -7.38571 | 13111 ft | 395 kts | 7° |
| 2026-05-07 17:54 | 33.77433 | -7.38046 | 13702 ft | 400 kts | 7° |
| 2026-05-07 17:55 | 33.80204 | -7.37513 | 14276 ft | 403 kts | 7° |
| 2026-05-07 17:55 | 33.82985 | -7.36977 | 14826 ft | 407 kts | 6° |
| 2026-05-07 17:55 | 33.85783 | -7.36437 | 14927 ft | 406 kts | 6° |
| 2026-05-07 17:55 | 33.88550 | -7.35903 | 14941 ft | 407 kts | 6° |
| 2026-05-07 17:56 | 33.91358 | -7.35361 | 14963 ft | 411 kts | 6° |
| 2026-05-07 17:56 | 33.94174 | -7.34818 | 15457 ft | 414 kts | 6° |
| 2026-05-07 17:56 | 33.97025 | -7.34266 | 16172 ft | 413 kts | 6° |
| 2026-05-07 17:56 | 33.99872 | -7.33715 | 16770 ft | 415 kts | 6° |
| 2026-05-07 17:57 | 34.02751 | -7.33159 | 17285 ft | 419 kts | 6° |
| 2026-05-07 17:57 | 34.04671 | -7.32788 | 17634 ft | 422 kts | 5° |
| 2026-05-07 17:57 | 34.08571 | -7.32033 | 18325 ft | 427 kts | 5° |
| 2026-05-07 17:57 | 34.11477 | -7.31412 | 18780 ft | 432 kts | 11° |
| 2026-05-07 17:58 | 34.14294 | -7.30055 | 19217 ft | 440 kts | 24° |
| 2026-05-07 17:58 | 34.17028 | -7.28347 | 19691 ft | 444 kts | 25° |
| 2026-05-07 17:58 | 34.19770 | -7.26591 | 20117 ft | 448 kts | 25° |
| 2026-05-07 17:58 | 34.22540 | -7.24820 | 20541 ft | 451 kts | 25° |
| 2026-05-07 17:59 | 34.25345 | -7.23048 | 20977 ft | 455 kts | 24° |
| 2026-05-07 17:59 | 34.28173 | -7.21281 | 21405 ft | 458 kts | 24° |
| 2026-05-07 17:59 | 34.30989 | -7.19535 | 21808 ft | 461 kts | 24° |
| 2026-05-07 17:59 | 34.33876 | -7.17753 | 22210 ft | 464 kts | 24° |
| 2026-05-07 18:00 | 34.36763 | -7.15971 | 22606 ft | 468 kts | 24° |
| 2026-05-07 18:00 | 34.39645 | -7.14192 | 23002 ft | 471 kts | 24° |
| 2026-05-07 18:00 | 34.42581 | -7.12377 | 23375 ft | 474 kts | 24° |
| 2026-05-07 18:00 | 34.45543 | -7.10542 | 23702 ft | 477 kts | 24° |
| 2026-05-07 18:01 | 34.48470 | -7.08728 | 24052 ft | 479 kts | 24° |
| 2026-05-07 18:01 | 34.51450 | -7.06878 | 24408 ft | 480 kts | 24° |
| 2026-05-07 18:01 | 34.54442 | -7.05019 | 24774 ft | 482 kts | 24° |
| 2026-05-07 18:01 | 34.57445 | -7.03153 | 25104 ft | 484 kts | 23° |
| 2026-05-07 18:02 | 34.63447 | -6.99437 | 25724 ft | 488 kts | 23° |
| 2026-05-07 18:02 | 34.66501 | -6.97569 | 26037 ft | 490 kts | 23° |
| 2026-05-07 18:02 | 34.69532 | -6.95718 | 26348 ft | 492 kts | 23° |
| 2026-05-07 18:03 | 34.72381 | -6.93978 | 26642 ft | 493 kts | 23° |
| 2026-05-07 18:03 | 34.75472 | -6.92086 | 26942 ft | 495 kts | 23° |
| 2026-05-07 18:03 | 34.78523 | -6.90216 | 27219 ft | 497 kts | 23° |
| 2026-05-07 18:03 | 34.81640 | -6.88301 | 27506 ft | 499 kts | 23° |
| 2026-05-07 18:04 | 34.84748 | -6.86390 | 27798 ft | 500 kts | 23° |
| 2026-05-07 18:04 | 34.87870 | -6.84467 | 28077 ft | 502 kts | 23° |
| 2026-05-07 18:04 | 34.90979 | -6.82550 | 28333 ft | 504 kts | 23° |
| 2026-05-07 18:04 | 34.94129 | -6.80607 | 28592 ft | 506 kts | 23° |
| 2026-05-07 18:05 | 34.97237 | -6.78689 | 28854 ft | 507 kts | 23° |
| 2026-05-07 18:05 | 35.00388 | -6.76741 | 29122 ft | 508 kts | 23° |
| 2026-05-07 18:05 | 35.03570 | -6.74773 | 29482 ft | 508 kts | 23° |
| 2026-05-07 18:05 | 35.06722 | -6.72820 | 29915 ft | 505 kts | 23° |
| 2026-05-07 18:06 | 35.09832 | -6.70892 | 30289 ft | 503 kts | 22° |
| 2026-05-07 18:06 | 35.12948 | -6.68959 | 30609 ft | 502 kts | 22° |
| 2026-05-07 18:06 | 35.16085 | -6.67013 | 30889 ft | 502 kts | 22° |
| 2026-05-07 18:06 | 35.19170 | -6.65097 | 31161 ft | 502 kts | 22° |
| 2026-05-07 18:07 | 35.22277 | -6.63167 | 31482 ft | 500 kts | 22° |
| 2026-05-07 18:07 | 35.25382 | -6.61234 | 31788 ft | 499 kts | 22° |
| 2026-05-07 18:07 | 35.28464 | -6.59315 | 32075 ft | 498 kts | 22° |
| 2026-05-07 18:07 | 35.31546 | -6.57394 | 32358 ft | 498 kts | 22° |
| 2026-05-07 18:08 | 35.34657 | -6.55453 | 32636 ft | 497 kts | 21° |
| 2026-05-07 18:08 | 35.37720 | -6.53540 | 32921 ft | 496 kts | 21° |
| 2026-05-07 18:08 | 35.40806 | -6.51612 | 33190 ft | 496 kts | 21° |
| 2026-05-07 18:08 | 35.43860 | -6.49703 | 33452 ft | 495 kts | 21° |
| 2026-05-07 18:09 | 35.46921 | -6.47764 | 33718 ft | 495 kts | 22° |
| 2026-05-07 18:09 | 35.49964 | -6.45786 | 33951 ft | 496 kts | 22° |
| 2026-05-07 18:09 | 35.53020 | -6.43780 | 33920 ft | 500 kts | 22° |
| 2026-05-07 18:10 | 35.59156 | -6.39741 | 33924 ft | 499 kts | 22° |
| 2026-05-07 18:10 | 35.65245 | -6.35743 | 33919 ft | 493 kts | 22° |
| 2026-05-07 18:11 | 35.71316 | -6.31764 | 33934 ft | 492 kts | 22° |
| 2026-05-07 18:11 | 35.77328 | -6.27819 | 33930 ft | 491 kts | 22° |
| 2026-05-07 18:12 | 35.83378 | -6.23852 | 33934 ft | 492 kts | 22° |
| 2026-05-07 18:12 | 35.89427 | -6.19951 | 33938 ft | 492 kts | 21° |
| 2026-05-07 18:13 | 35.95502 | -6.16049 | 33942 ft | 493 kts | 21° |
| 2026-05-07 18:13 | 36.01579 | -6.12116 | 33945 ft | 494 kts | 21° |
| 2026-05-07 18:14 | 36.07679 | -6.08157 | 33937 ft | 494 kts | 21° |
| 2026-05-07 18:14 | 36.13774 | -6.04196 | 33934 ft | 495 kts | 21° |
| 2026-05-07 18:15 | 36.19886 | -6.00219 | 33940 ft | 496 kts | 21° |
| 2026-05-07 18:15 | 36.26194 | -5.97118 | 33934 ft | 481 kts | 5° |
| 2026-05-07 18:16 | 36.32745 | -5.95883 | 33934 ft | 474 kts | 360° |
| 2026-05-07 18:16 | 36.39285 | -5.94820 | 33927 ft | 474 kts | 0° |
| 2026-05-07 18:17 | 36.45850 | -5.93700 | 33929 ft | 475 kts | 0° |
| 2026-05-07 18:17 | 36.52360 | -5.92546 | 33915 ft | 475 kts | 0° |
| 2026-05-07 18:18 | 36.58916 | -5.91370 | 33926 ft | 474 kts | 0° |
| 2026-05-07 18:18 | 36.64363 | -5.90393 | 33919 ft | 474 kts | 0° |
| 2026-05-07 18:19 | 36.70859 | -5.89228 | 33910 ft | 473 kts | 0° |
| 2026-05-07 18:19 | 36.77408 | -5.88053 | 33916 ft | 473 kts | 0° |
| 2026-05-07 18:20 | 36.83913 | -5.86883 | 33924 ft | 472 kts | 0° |
| 2026-05-07 18:20 | 36.90421 | -5.85711 | 33912 ft | 472 kts | 1° |
| 2026-05-07 18:21 | 36.96884 | -5.84545 | 33914 ft | 472 kts | 1° |
| 2026-05-07 18:21 | 37.02647 | -5.83504 | 33906 ft | 472 kts | 1° |
| 2026-05-07 18:22 | 37.09152 | -5.82326 | 33902 ft | 472 kts | 1° |
| 2026-05-07 18:22 | 37.15634 | -5.81150 | 33896 ft | 472 kts | 1° |
| 2026-05-07 18:23 | 37.22145 | -5.79967 | 33891 ft | 472 kts | 1° |
| 2026-05-07 18:23 | 37.28650 | -5.78783 | 33889 ft | 472 kts | 1° |
| 2026-05-07 18:24 | 37.35148 | -5.77599 | 33890 ft | 473 kts | 0° |
| 2026-05-07 18:24 | 37.41683 | -5.76311 | 33881 ft | 478 kts | 6° |
| 2026-05-07 18:25 | 37.48007 | -5.73305 | 33896 ft | 491 kts | 19° |
| 2026-05-07 18:25 | 37.54125 | -5.69501 | 33886 ft | 493 kts | 20° |
| 2026-05-07 18:26 | 37.60313 | -5.65642 | 33888 ft | 493 kts | 19° |
| 2026-05-07 18:26 | 37.66443 | -5.61887 | 33893 ft | 493 kts | 19° |
| 2026-05-07 18:27 | 37.72650 | -5.58116 | 33889 ft | 493 kts | 19° |
| 2026-05-07 18:27 | 37.78839 | -5.54353 | 33883 ft | 493 kts | 19° |
| 2026-05-07 18:28 | 37.85010 | -5.50590 | 33886 ft | 493 kts | 19° |
| 2026-05-07 18:28 | 37.91170 | -5.46825 | 33867 ft | 493 kts | 19° |
| 2026-05-07 18:29 | 37.97370 | -5.43027 | 33874 ft | 492 kts | 19° |
| 2026-05-07 18:29 | 38.03518 | -5.39254 | 33877 ft | 491 kts | 18° |
| 2026-05-07 18:30 | 38.09646 | -5.35487 | 33870 ft | 491 kts | 18° |
| 2026-05-07 18:30 | 38.15798 | -5.31698 | 33865 ft | 490 kts | 19° |
| 2026-05-07 18:31 | 38.21919 | -5.27921 | 33863 ft | 490 kts | 19° |
| 2026-05-07 18:31 | 38.28049 | -5.24131 | 33861 ft | 488 kts | 19° |
| 2026-05-07 18:32 | 38.34164 | -5.20343 | 33857 ft | 488 kts | 18° |
| 2026-05-07 18:32 | 38.40253 | -5.16564 | 33851 ft | 487 kts | 18° |
| 2026-05-07 18:33 | 38.46342 | -5.12778 | 33852 ft | 486 kts | 18° |
| 2026-05-07 18:33 | 38.52456 | -5.09052 | 33853 ft | 483 kts | 15° |
| 2026-05-07 18:34 | 38.58649 | -5.05846 | 33858 ft | 479 kts | 13° |
| 2026-05-07 18:34 | 38.64887 | -5.02758 | 33856 ft | 480 kts | 13° |
| 2026-05-07 18:35 | 38.71065 | -4.99633 | 33850 ft | 480 kts | 13° |
| 2026-05-07 18:35 | 38.77279 | -4.96441 | 33844 ft | 480 kts | 14° |
| 2026-05-07 18:36 | 38.83461 | -4.93250 | 33861 ft | 479 kts | 13° |
| 2026-05-07 18:36 | 38.89672 | -4.90044 | 33866 ft | 479 kts | 13° |
| 2026-05-07 18:37 | 38.95855 | -4.86848 | 33866 ft | 478 kts | 13° |
| 2026-05-07 18:37 | 39.02033 | -4.83648 | 33877 ft | 478 kts | 13° |
| 2026-05-07 18:38 | 39.08202 | -4.80440 | 33871 ft | 477 kts | 13° |
| 2026-05-07 18:38 | 39.14342 | -4.77240 | 33868 ft | 476 kts | 13° |
| 2026-05-07 18:39 | 39.20481 | -4.74037 | 33877 ft | 474 kts | 13° |
| 2026-05-07 18:39 | 39.26615 | -4.70841 | 33887 ft | 473 kts | 13° |
| 2026-05-07 18:40 | 39.32706 | -4.67666 | 33884 ft | 472 kts | 13° |
| 2026-05-07 18:40 | 39.38799 | -4.64483 | 33893 ft | 471 kts | 13° |
| 2026-05-07 18:41 | 39.44867 | -4.61305 | 33904 ft | 471 kts | 13° |
| 2026-05-07 18:41 | 39.50926 | -4.58124 | 33892 ft | 470 kts | 13° |
| 2026-05-07 18:42 | 39.56985 | -4.54939 | 33904 ft | 468 kts | 13° |
| 2026-05-07 18:42 | 39.63040 | -4.51750 | 33898 ft | 469 kts | 13° |
| 2026-05-07 18:43 | 39.69070 | -4.48568 | 33894 ft | 468 kts | 13° |
| 2026-05-07 18:43 | 39.75078 | -4.45390 | 33899 ft | 467 kts | 13° |
| 2026-05-07 18:44 | 39.81128 | -4.42182 | 33900 ft | 466 kts | 13° |
| 2026-05-07 18:44 | 39.87116 | -4.38968 | 33901 ft | 465 kts | 13° |
| 2026-05-07 18:45 | 39.93106 | -4.35743 | 33912 ft | 464 kts | 13° |
| 2026-05-07 18:45 | 39.99037 | -4.32510 | 33897 ft | 465 kts | 15° |
| 2026-05-07 18:46 | 40.04919 | -4.28950 | 33905 ft | 466 kts | 16° |
| 2026-05-07 18:46 | 40.10791 | -4.25297 | 33913 ft | 466 kts | 16° |
| 2026-05-07 18:47 | 40.16658 | -4.21678 | 33910 ft | 465 kts | 16° |
| 2026-05-07 18:47 | 40.22486 | -4.18108 | 33918 ft | 464 kts | 16° |
| 2026-05-07 18:48 | 40.28340 | -4.14525 | 33919 ft | 463 kts | 16° |
| 2026-05-07 18:48 | 40.34178 | -4.10945 | 33928 ft | 462 kts | 16° |
| 2026-05-07 18:49 | 40.39545 | -4.07646 | 33928 ft | 462 kts | 16° |
| 2026-05-07 18:49 | 40.44413 | -4.04648 | 33936 ft | 461 kts | 15° |
| 2026-05-07 18:50 | 40.50206 | -4.01075 | 33926 ft | 461 kts | 15° |
| 2026-05-07 18:50 | 40.56001 | -3.97493 | 33930 ft | 459 kts | 15° |
| 2026-05-07 18:51 | 40.61801 | -3.93901 | 33945 ft | 459 kts | 15° |
| 2026-05-07 18:51 | 40.67568 | -3.90324 | 33940 ft | 459 kts | 15° |
| 2026-05-07 18:52 | 40.73362 | -3.86722 | 33940 ft | 459 kts | 15° |
| 2026-05-07 18:52 | 40.79104 | -3.83143 | 33938 ft | 458 kts | 15° |
| 2026-05-07 18:53 | 40.84847 | -3.79558 | 33943 ft | 456 kts | 15° |
| 2026-05-07 18:53 | 40.90599 | -3.75964 | 33918 ft | 457 kts | 15° |
| 2026-05-07 18:54 | 40.96371 | -3.72348 | 33933 ft | 457 kts | 16° |
| 2026-05-07 18:54 | 41.02103 | -3.68749 | 33936 ft | 456 kts | 16° |
| 2026-05-07 18:55 | 41.07828 | -3.65148 | 33924 ft | 457 kts | 16° |
| 2026-05-07 18:55 | 41.13609 | -3.61506 | 33921 ft | 457 kts | 16° |
| 2026-05-07 18:56 | 41.19406 | -3.58083 | 33922 ft | 454 kts | 13° |
| 2026-05-07 18:56 | 41.25239 | -3.54961 | 33923 ft | 454 kts | 13° |
| 2026-05-07 18:57 | 41.31125 | -3.51795 | 33913 ft | 455 kts | 13° |
| 2026-05-07 18:57 | 41.36960 | -3.48603 | 33915 ft | 455 kts | 14° |
| 2026-05-07 18:58 | 41.42818 | -3.45379 | 33914 ft | 455 kts | 14° |
| 2026-05-07 18:58 | 41.48683 | -3.42148 | 33905 ft | 454 kts | 14° |
| 2026-05-07 18:59 | 41.54532 | -3.38925 | 33916 ft | 454 kts | 14° |
| 2026-05-07 18:59 | 41.60343 | -3.35719 | 33905 ft | 454 kts | 14° |
| 2026-05-07 19:00 | 41.66198 | -3.32482 | 33910 ft | 454 kts | 15° |
| 2026-05-07 19:00 | 41.72057 | -3.29236 | 33925 ft | 454 kts | 15° |
| 2026-05-07 19:01 | 41.77901 | -3.25993 | 33919 ft | 455 kts | 15° |
| 2026-05-07 19:01 | 41.83759 | -3.22735 | 33918 ft | 456 kts | 15° |
| 2026-05-07 19:02 | 41.89600 | -3.19480 | 33922 ft | 457 kts | 15° |
| 2026-05-07 19:02 | 41.95491 | -3.16189 | 33930 ft | 458 kts | 16° |
| 2026-05-07 19:03 | 42.01391 | -3.12888 | 33935 ft | 459 kts | 16° |
| 2026-05-07 19:03 | 42.07300 | -3.09574 | 33935 ft | 460 kts | 16° |
| 2026-05-07 19:04 | 42.13214 | -3.06251 | 33945 ft | 461 kts | 16° |
| 2026-05-07 19:04 | 42.19136 | -3.02916 | 33932 ft | 461 kts | 16° |
| 2026-05-07 19:05 | 42.25031 | -2.99590 | 33947 ft | 461 kts | 16° |
| 2026-05-07 19:05 | 42.30949 | -2.96243 | 33922 ft | 461 kts | 17° |
| 2026-05-07 19:06 | 42.36864 | -2.92892 | 33929 ft | 460 kts | 17° |
| 2026-05-07 19:06 | 42.45853 | -2.88578 | 33926 ft | 450 kts | 4° |
| 2026-05-07 19:07 | 42.51968 | -2.88274 | 33925 ft | 440 kts | 352° |
| 2026-05-07 19:07 | 42.58081 | -2.88669 | 33913 ft | 440 kts | 352° |
| 2026-05-07 19:08 | 42.64249 | -2.89051 | 33910 ft | 441 kts | 352° |
| 2026-05-07 19:08 | 42.70346 | -2.89383 | 33918 ft | 441 kts | 353° |
| 2026-05-07 19:09 | 42.76509 | -2.89701 | 33920 ft | 442 kts | 353° |
| 2026-05-07 19:09 | 42.82661 | -2.90017 | 33914 ft | 444 kts | 353° |
| 2026-05-07 19:10 | 42.88830 | -2.90334 | 33910 ft | 444 kts | 353° |
| 2026-05-07 19:10 | 42.95012 | -2.90654 | 33920 ft | 445 kts | 353° |
| 2026-05-07 19:11 | 43.01201 | -2.90976 | 33911 ft | 445 kts | 353° |
| 2026-05-07 19:11 | 43.06397 | -2.91246 | 33909 ft | 446 kts | 353° |